sensor_id;sensor_type;location;lat;lon;timestamp;pressure;altitude;pressure_sealevel;temperature
24639;BMP180;1641;51.306;12.384;2022-08-21T00:01:23;100193.00;;;20.90
24639;BMP180;1641;51.306;12.384;2022-08-21T00:03:49;100195.00;;;20.80
24639;BMP180;1641;51.306;12.384;2022-08-21T00:06:15;100193.00;;;20.80
24639;BMP180;1641;51.306;12.384;2022-08-21T00:08:41;100191.00;;;20.60
24639;BMP180;1641;51.306;12.384;2022-08-21T00:11:07;100192.00;;;20.60
24639;BMP180;1641;51.306;12.384;2022-08-21T00:13:35;100187.00;;;20.90
24639;BMP180;1641;51.306;12.384;2022-08-21T00:16:06;100183.00;;;20.90
24639;BMP180;1641;51.306;12.384;2022-08-21T00:18:32;100190.00;;;20.90
24639;BMP180;1641;51.306;12.384;2022-08-21T00:20:57;100189.00;;;20.50
24639;BMP180;1641;51.306;12.384;2022-08-21T00:23:25;100195.00;;;20.30
24639;BMP180;1641;51.306;12.384;2022-08-21T00:25:51;100202.00;;;20.40
24639;BMP180;1641;51.306;12.384;2022-08-21T00:28:16;100182.00;;;20.50
24639;BMP180;1641;51.306;12.384;2022-08-21T00:30:42;100190.00;;;20.70
24639;BMP180;1641;51.306;12.384;2022-08-21T00:33:09;100194.00;;;20.70
24639;BMP180;1641;51.306;12.384;2022-08-21T00:35:38;100190.00;;;20.80
24639;BMP180;1641;51.306;12.384;2022-08-21T00:38:05;100194.00;;;20.60
24639;BMP180;1641;51.306;12.384;2022-08-21T00:40:38;100194.00;;;20.50
24639;BMP180;1641;51.306;12.384;2022-08-21T00:43:07;100194.00;;;20.80
24639;BMP180;1641;51.306;12.384;2022-08-21T00:45:39;100188.00;;;20.60
24639;BMP180;1641;51.306;12.384;2022-08-21T00:48:05;100184.00;;;20.70
24639;BMP180;1641;51.306;12.384;2022-08-21T00:50:33;100177.00;;;21.20
24639;BMP180;1641;51.306;12.384;2022-08-21T00:53:00;100180.00;;;20.70
24639;BMP180;1641;51.306;12.384;2022-08-21T00:55:26;100190.00;;;20.50
24639;BMP180;1641;51.306;12.384;2022-08-21T00:57:55;100191.00;;;20.50
24639;BMP180;1641;51.306;12.384;2022-08-21T01:00:26;100192.00;;;20.30
24639;BMP180;1641;51.306;12.384;2022-08-21T01:02:53;100188.00;;;20.20
24639;BMP180;1641;51.306;12.384;2022-08-21T01:05:18;100200.00;;;20.10
24639;BMP180;1641;51.306;12.384;2022-08-21T01:07:44;100193.00;;;20.10
24639;BMP180;1641;51.306;12.384;2022-08-21T01:10:10;100193.00;;;20.20
24639;BMP180;1641;51.306;12.384;2022-08-21T01:12:37;100198.00;;;20.50
24639;BMP180;1641;51.306;12.384;2022-08-21T01:15:04;100194.00;;;20.30
24639;BMP180;1641;51.306;12.384;2022-08-21T01:17:30;100186.00;;;20.30
24639;BMP180;1641;51.306;12.384;2022-08-21T01:20:00;100196.00;;;20.40
24639;BMP180;1641;51.306;12.384;2022-08-21T01:22:25;100194.00;;;20.10
24639;BMP180;1641;51.306;12.384;2022-08-21T01:24:51;100195.00;;;20.30
24639;BMP180;1641;51.306;12.384;2022-08-21T01:27:16;100198.00;;;20.30
24639;BMP180;1641;51.306;12.384;2022-08-21T01:29:46;100192.00;;;20.20
24639;BMP180;1641;51.306;12.384;2022-08-21T01:32:16;100192.00;;;20.20
24639;BMP180;1641;51.306;12.384;2022-08-21T01:34:43;100190.00;;;20.20
24639;BMP180;1641;51.306;12.384;2022-08-21T01:37:09;100197.00;;;20.40
24639;BMP180;1641;51.306;12.384;2022-08-21T01:39:35;100194.00;;;20.50
24639;BMP180;1641;51.306;12.384;2022-08-21T01:42:01;100194.00;;;20.40
24639;BMP180;1641;51.306;12.384;2022-08-21T01:44:27;100195.00;;;20.40
24639;BMP180;1641;51.306;12.384;2022-08-21T01:46:53;100193.00;;;20.40
24639;BMP180;1641;51.306;12.384;2022-08-21T01:49:19;100185.00;;;20.30
24639;BMP180;1641;51.306;12.384;2022-08-21T01:51:46;100190.00;;;20.50
24639;BMP180;1641;51.306;12.384;2022-08-21T01:54:11;100192.00;;;20.40
24639;BMP180;1641;51.306;12.384;2022-08-21T01:56:40;100184.00;;;20.40
24639;BMP180;1641;51.306;12.384;2022-08-21T01:59:06;100186.00;;;20.50
24639;BMP180;1641;51.306;12.384;2022-08-21T02:01:31;100178.00;;;20.70
24639;BMP180;1641;51.306;12.384;2022-08-21T02:03:57;100178.00;;;20.70
24639;BMP180;1641;51.306;12.384;2022-08-21T02:06:24;100166.00;;;20.80
24639;BMP180;1641;51.306;12.384;2022-08-21T02:08:49;100171.00;;;20.80
24639;BMP180;1641;51.306;12.384;2022-08-21T02:11:15;100167.00;;;21.20
24639;BMP180;1641;51.306;12.384;2022-08-21T02:13:40;100172.00;;;21.00
24639;BMP180;1641;51.306;12.384;2022-08-21T02:16:06;100170.00;;;20.50
24639;BMP180;1641;51.306;12.384;2022-08-21T02:18:32;100182.00;;;20.60
24639;BMP180;1641;51.306;12.384;2022-08-21T02:20:57;100182.00;;;20.60
24639;BMP180;1641;51.306;12.384;2022-08-21T02:23:23;100178.00;;;20.80
24639;BMP180;1641;51.306;12.384;2022-08-21T02:25:49;100177.00;;;20.70
24639;BMP180;1641;51.306;12.384;2022-08-21T02:28:14;100168.00;;;20.90
24639;BMP180;1641;51.306;12.384;2022-08-21T02:30:43;100168.00;;;20.80
24639;BMP180;1641;51.306;12.384;2022-08-21T02:33:09;100165.00;;;20.90
24639;BMP180;1641;51.306;12.384;2022-08-21T02:35:38;100166.00;;;20.80
24639;BMP180;1641;51.306;12.384;2022-08-21T02:38:07;100167.00;;;20.50
24639;BMP180;1641;51.306;12.384;2022-08-21T02:40:35;100163.00;;;20.40
24639;BMP180;1641;51.306;12.384;2022-08-21T02:43:02;100162.00;;;20.50
24639;BMP180;1641;51.306;12.384;2022-08-21T02:45:29;100172.00;;;20.30
24639;BMP180;1641;51.306;12.384;2022-08-21T02:48:00;100173.00;;;20.10
24639;BMP180;1641;51.306;12.384;2022-08-21T02:50:28;100183.00;;;20.10
24639;BMP180;1641;51.306;12.384;2022-08-21T02:52:57;100172.00;;;20.40
24639;BMP180;1641;51.306;12.384;2022-08-21T02:55:25;100167.00;;;20.60
24639;BMP180;1641;51.306;12.384;2022-08-21T02:57:52;100176.00;;;20.40
24639;BMP180;1641;51.306;12.384;2022-08-21T03:00:19;100172.00;;;20.30
24639;BMP180;1641;51.306;12.384;2022-08-21T03:02:46;100160.00;;;20.10
24639;BMP180;1641;51.306;12.384;2022-08-21T03:05:12;100161.00;;;20.30
24639;BMP180;1641;51.306;12.384;2022-08-21T03:07:38;100158.00;;;20.10
24639;BMP180;1641;51.306;12.384;2022-08-21T03:10:05;100160.00;;;20.10
24639;BMP180;1641;51.306;12.384;2022-08-21T03:12:30;100167.00;;;19.90
24639;BMP180;1641;51.306;12.384;2022-08-21T03:14:56;100160.00;;;20.00
24639;BMP180;1641;51.306;12.384;2022-08-21T03:17:22;100142.00;;;19.90
24639;BMP180;1641;51.306;12.384;2022-08-21T03:19:47;100171.00;;;19.70
24639;BMP180;1641;51.306;12.384;2022-08-21T03:22:12;100167.00;;;19.70
24639;BMP180;1641;51.306;12.384;2022-08-21T03:24:37;100170.00;;;19.70
24639;BMP180;1641;51.306;12.384;2022-08-21T03:27:03;100159.00;;;19.70
24639;BMP180;1641;51.306;12.384;2022-08-21T03:29:28;100164.00;;;19.60
24639;BMP180;1641;51.306;12.384;2022-08-21T03:32:00;100163.00;;;19.80
24639;BMP180;1641;51.306;12.384;2022-08-21T03:34:25;100171.00;;;20.00
24639;BMP180;1641;51.306;12.384;2022-08-21T03:36:50;100164.00;;;20.00
24639;BMP180;1641;51.306;12.384;2022-08-21T03:39:16;100164.00;;;20.40
24639;BMP180;1641;51.306;12.384;2022-08-21T03:41:41;100173.00;;;20.40
24639;BMP180;1641;51.306;12.384;2022-08-21T03:44:07;100172.00;;;20.20
24639;BMP180;1641;51.306;12.384;2022-08-21T03:46:32;100167.00;;;20.20
24639;BMP180;1641;51.306;12.384;2022-08-21T03:48:57;100173.00;;;20.40
24639;BMP180;1641;51.306;12.384;2022-08-21T03:51:23;100177.00;;;20.20
24639;BMP180;1641;51.306;12.384;2022-08-21T03:53:48;100180.00;;;20.40
24639;BMP180;1641;51.306;12.384;2022-08-21T03:56:13;100180.00;;;20.60
24639;BMP180;1641;51.306;12.384;2022-08-21T03:58:41;100187.00;;;20.30
24639;BMP180;1641;51.306;12.384;2022-08-21T04:01:06;100170.00;;;20.10
24639;BMP180;1641;51.306;12.384;2022-08-21T04:03:32;100185.00;;;20.40
24639;BMP180;1641;51.306;12.384;2022-08-21T04:05:58;100187.00;;;20.50
24639;BMP180;1641;51.306;12.384;2022-08-21T04:08:24;100189.00;;;20.70
24639;BMP180;1641;51.306;12.384;2022-08-21T04:10:51;100194.00;;;20.60
24639;BMP180;1641;51.306;12.384;2022-08-21T04:13:17;100192.00;;;20.10
24639;BMP180;1641;51.306;12.384;2022-08-21T04:15:42;100198.00;;;20.10
24639;BMP180;1641;51.306;12.384;2022-08-21T04:18:08;100191.00;;;19.90
24639;BMP180;1641;51.306;12.384;2022-08-21T04:20:34;100194.00;;;20.00
24639;BMP180;1641;51.306;12.384;2022-08-21T04:22:59;100203.00;;;19.90
24639;BMP180;1641;51.306;12.384;2022-08-21T04:25:25;100200.00;;;19.60
24639;BMP180;1641;51.306;12.384;2022-08-21T04:27:50;100206.00;;;19.80
24639;BMP180;1641;51.306;12.384;2022-08-21T04:30:16;100203.00;;;19.80
24639;BMP180;1641;51.306;12.384;2022-08-21T04:32:44;100208.00;;;19.80
24639;BMP180;1641;51.306;12.384;2022-08-21T04:35:11;100208.00;;;19.70
24639;BMP180;1641;51.306;12.384;2022-08-21T04:37:36;100209.00;;;19.70
24639;BMP180;1641;51.306;12.384;2022-08-21T04:40:03;100208.00;;;19.50
24639;BMP180;1641;51.306;12.384;2022-08-21T04:42:29;100220.00;;;19.80
24639;BMP180;1641;51.306;12.384;2022-08-21T04:44:55;100206.00;;;19.80
24639;BMP180;1641;51.306;12.384;2022-08-21T04:47:21;100218.00;;;19.70
24639;BMP180;1641;51.306;12.384;2022-08-21T04:49:47;100210.00;;;19.50
24639;BMP180;1641;51.306;12.384;2022-08-21T04:52:15;100221.00;;;19.40
24639;BMP180;1641;51.306;12.384;2022-08-21T04:54:42;100214.00;;;19.50
24639;BMP180;1641;51.306;12.384;2022-08-21T04:57:09;100221.00;;;19.40
24639;BMP180;1641;51.306;12.384;2022-08-21T04:59:39;100220.00;;;19.40
24639;BMP180;1641;51.306;12.384;2022-08-21T05:02:07;100224.00;;;19.50
24639;BMP180;1641;51.306;12.384;2022-08-21T05:04:34;100220.00;;;19.50
24639;BMP180;1641;51.306;12.384;2022-08-21T05:07:04;100219.00;;;19.40
24639;BMP180;1641;51.306;12.384;2022-08-21T05:09:31;100233.00;;;19.40
24639;BMP180;1641;51.306;12.384;2022-08-21T05:11:57;100229.00;;;19.50
24639;BMP180;1641;51.306;12.384;2022-08-21T05:14:23;100231.00;;;19.40
24639;BMP180;1641;51.306;12.384;2022-08-21T05:16:49;100232.00;;;19.80
24639;BMP180;1641;51.306;12.384;2022-08-21T05:19:14;100236.00;;;19.80
24639;BMP180;1641;51.306;12.384;2022-08-21T05:21:42;100233.00;;;20.00
24639;BMP180;1641;51.306;12.384;2022-08-21T05:24:09;100236.00;;;19.70
24639;BMP180;1641;51.306;12.384;2022-08-21T05:26:35;100240.00;;;19.60
24639;BMP180;1641;51.306;12.384;2022-08-21T05:29:02;100236.00;;;19.60
24639;BMP180;1641;51.306;12.384;2022-08-21T05:31:27;100233.00;;;19.70
24639;BMP180;1641;51.306;12.384;2022-08-21T05:33:52;100241.00;;;19.60
24639;BMP180;1641;51.306;12.384;2022-08-21T05:36:18;100234.00;;;19.50
24639;BMP180;1641;51.306;12.384;2022-08-21T05:38:43;100238.00;;;19.80
24639;BMP180;1641;51.306;12.384;2022-08-21T05:41:09;100248.00;;;19.90
24639;BMP180;1641;51.306;12.384;2022-08-21T05:43:34;100243.00;;;19.80
24639;BMP180;1641;51.306;12.384;2022-08-21T05:46:05;100241.00;;;20.00
24639;BMP180;1641;51.306;12.384;2022-08-21T05:48:31;100237.00;;;20.10
24639;BMP180;1641;51.306;12.384;2022-08-21T05:50:57;100228.00;;;19.90
24639;BMP180;1641;51.306;12.384;2022-08-21T05:53:24;100229.00;;;20.10
24639;BMP180;1641;51.306;12.384;2022-08-21T05:55:50;100243.00;;;19.90
24639;BMP180;1641;51.306;12.384;2022-08-21T05:58:18;100232.00;;;20.00
24639;BMP180;1641;51.306;12.384;2022-08-21T06:00:45;100237.00;;;20.10
24639;BMP180;1641;51.306;12.384;2022-08-21T06:03:15;100242.00;;;20.40
24639;BMP180;1641;51.306;12.384;2022-08-21T06:05:42;100232.00;;;20.40
24639;BMP180;1641;51.306;12.384;2022-08-21T06:08:07;100235.00;;;20.20
24639;BMP180;1641;51.306;12.384;2022-08-21T06:10:33;100235.00;;;20.00
24639;BMP180;1641;51.306;12.384;2022-08-21T06:12:58;100223.00;;;20.80
24639;BMP180;1641;51.306;12.384;2022-08-21T06:15:23;100232.00;;;20.60
24639;BMP180;1641;51.306;12.384;2022-08-21T06:17:48;100241.00;;;20.50
24639;BMP180;1641;51.306;12.384;2022-08-21T06:20:14;100245.00;;;20.80
24639;BMP180;1641;51.306;12.384;2022-08-21T06:22:39;100243.00;;;21.30
24639;BMP180;1641;51.306;12.384;2022-08-21T06:25:05;100239.00;;;21.00
24639;BMP180;1641;51.306;12.384;2022-08-21T06:27:30;100240.00;;;20.40
24639;BMP180;1641;51.306;12.384;2022-08-21T06:29:55;100248.00;;;20.50
24639;BMP180;1641;51.306;12.384;2022-08-21T06:32:22;100239.00;;;20.40
24639;BMP180;1641;51.306;12.384;2022-08-21T06:34:47;100253.00;;;20.60
24639;BMP180;1641;51.306;12.384;2022-08-21T06:37:12;100248.00;;;21.00
24639;BMP180;1641;51.306;12.384;2022-08-21T06:39:38;100263.00;;;20.80
24639;BMP180;1641;51.306;12.384;2022-08-21T06:42:04;100263.00;;;20.60
24639;BMP180;1641;51.306;12.384;2022-08-21T06:44:30;100268.00;;;20.40
24639;BMP180;1641;51.306;12.384;2022-08-21T06:46:55;100268.00;;;20.90
24639;BMP180;1641;51.306;12.384;2022-08-21T06:49:20;100265.00;;;20.90
24639;BMP180;1641;51.306;12.384;2022-08-21T06:51:46;100269.00;;;20.50
24639;BMP180;1641;51.306;12.384;2022-08-21T06:54:11;100266.00;;;20.90
24639;BMP180;1641;51.306;12.384;2022-08-21T06:56:36;100268.00;;;21.20
24639;BMP180;1641;51.306;12.384;2022-08-21T06:59:03;100268.00;;;21.10
24639;BMP180;1641;51.306;12.384;2022-08-21T07:01:29;100269.00;;;20.90
24639;BMP180;1641;51.306;12.384;2022-08-21T07:03:55;100274.00;;;20.70
24639;BMP180;1641;51.306;12.384;2022-08-21T07:06:20;100267.00;;;21.10
24639;BMP180;1641;51.306;12.384;2022-08-21T07:08:45;100256.00;;;21.10
24639;BMP180;1641;51.306;12.384;2022-08-21T07:11:14;100261.00;;;21.50
24639;BMP180;1641;51.306;12.384;2022-08-21T07:13:41;100256.00;;;21.50
24639;BMP180;1641;51.306;12.384;2022-08-21T07:16:07;100264.00;;;22.10
24639;BMP180;1641;51.306;12.384;2022-08-21T07:18:33;100261.00;;;22.10
24639;BMP180;1641;51.306;12.384;2022-08-21T07:21:00;100266.00;;;22.10
24639;BMP180;1641;51.306;12.384;2022-08-21T07:23:32;100265.00;;;22.20
24639;BMP180;1641;51.306;12.384;2022-08-21T07:25:58;100260.00;;;23.00
24639;BMP180;1641;51.306;12.384;2022-08-21T07:28:25;100259.00;;;23.20
24639;BMP180;1641;51.306;12.384;2022-08-21T07:30:53;100267.00;;;23.00
24639;BMP180;1641;51.306;12.384;2022-08-21T07:33:19;100267.00;;;22.80
24639;BMP180;1641;51.306;12.384;2022-08-21T07:35:44;100273.00;;;23.10
24639;BMP180;1641;51.306;12.384;2022-08-21T07:38:09;100268.00;;;23.40
24639;BMP180;1641;51.306;12.384;2022-08-21T07:40:35;100271.00;;;22.40
24639;BMP180;1641;51.306;12.384;2022-08-21T07:43:00;100254.00;;;22.80
24639;BMP180;1641;51.306;12.384;2022-08-21T07:45:25;100264.00;;;22.10
24639;BMP180;1641;51.306;12.384;2022-08-21T07:47:51;100264.00;;;22.20
24639;BMP180;1641;51.306;12.384;2022-08-21T07:50:17;100257.00;;;22.60
24639;BMP180;1641;51.306;12.384;2022-08-21T07:52:43;100258.00;;;22.20
24639;BMP180;1641;51.306;12.384;2022-08-21T07:55:11;100261.00;;;22.30
24639;BMP180;1641;51.306;12.384;2022-08-21T07:57:36;100246.00;;;22.10
24639;BMP180;1641;51.306;12.384;2022-08-21T08:00:05;100255.00;;;22.40
24639;BMP180;1641;51.306;12.384;2022-08-21T08:02:31;100250.00;;;22.50
24639;BMP180;1641;51.306;12.384;2022-08-21T08:05:00;100260.00;;;21.90
24639;BMP180;1641;51.306;12.384;2022-08-21T08:07:26;100259.00;;;21.50
24639;BMP180;1641;51.306;12.384;2022-08-21T08:09:51;100255.00;;;21.80
24639;BMP180;1641;51.306;12.384;2022-08-21T08:12:17;100250.00;;;22.10
24639;BMP180;1641;51.306;12.384;2022-08-21T08:14:42;100247.00;;;22.70
24639;BMP180;1641;51.306;12.384;2022-08-21T08:17:07;100254.00;;;22.60
24639;BMP180;1641;51.306;12.384;2022-08-21T08:19:33;100241.00;;;22.90
24639;BMP180;1641;51.306;12.384;2022-08-21T08:21:58;100258.00;;;23.20
24639;BMP180;1641;51.306;12.384;2022-08-21T08:24:23;100251.00;;;23.90
24639;BMP180;1641;51.306;12.384;2022-08-21T08:26:48;100254.00;;;24.50
24639;BMP180;1641;51.306;12.384;2022-08-21T08:29:14;100250.00;;;24.90
24639;BMP180;1641;51.306;12.384;2022-08-21T08:31:39;100259.00;;;24.00
24639;BMP180;1641;51.306;12.384;2022-08-21T08:34:04;100260.00;;;23.00
24639;BMP180;1641;51.306;12.384;2022-08-21T08:36:35;100260.00;;;23.00
24639;BMP180;1641;51.306;12.384;2022-08-21T08:39:03;100257.00;;;22.70
24639;BMP180;1641;51.306;12.384;2022-08-21T08:41:29;100243.00;;;23.10
24639;BMP180;1641;51.306;12.384;2022-08-21T08:43:59;100241.00;;;23.40
24639;BMP180;1641;51.306;12.384;2022-08-21T08:46:38;100237.00;;;24.20
24639;BMP180;1641;51.306;12.384;2022-08-21T08:51:46;100219.00;;;24.70
24639;BMP180;1641;51.306;12.384;2022-08-21T08:54:42;100234.00;;;25.20
24639;BMP180;1641;51.306;12.384;2022-08-21T08:57:14;100251.00;;;25.50
24639;BMP180;1641;51.306;12.384;2022-08-21T08:59:44;100248.00;;;25.10
24639;BMP180;1641;51.306;12.384;2022-08-21T09:02:13;100241.00;;;26.60
24639;BMP180;1641;51.306;12.384;2022-08-21T09:04:39;100244.00;;;25.60
24639;BMP180;1641;51.306;12.384;2022-08-21T09:09:49;100256.00;;;25.20
24639;BMP180;1641;51.306;12.384;2022-08-21T09:12:25;100251.00;;;25.70
24639;BMP180;1641;51.306;12.384;2022-08-21T09:25:54;100244.00;;;28.70
24639;BMP180;1641;51.306;12.384;2022-08-21T09:28:20;100253.00;;;28.80
24639;BMP180;1641;51.306;12.384;2022-08-21T09:30:45;100250.00;;;29.40
24639;BMP180;1641;51.306;12.384;2022-08-21T09:33:12;100257.00;;;28.80
24639;BMP180;1641;51.306;12.384;2022-08-21T09:35:50;100248.00;;;28.40
24639;BMP180;1641;51.306;12.384;2022-08-21T09:38:26;100250.00;;;27.70
24639;BMP180;1641;51.306;12.384;2022-08-21T09:40:57;100251.00;;;27.50
24639;BMP180;1641;51.306;12.384;2022-08-21T09:43:23;100244.00;;;27.90
24639;BMP180;1641;51.306;12.384;2022-08-21T09:46:11;100254.00;;;28.10
24639;BMP180;1641;51.306;12.384;2022-08-21T09:48:45;100253.00;;;27.80
24639;BMP180;1641;51.306;12.384;2022-08-21T09:51:14;100240.00;;;28.30
24639;BMP180;1641;51.306;12.384;2022-08-21T09:53:56;100248.00;;;29.20
24639;BMP180;1641;51.306;12.384;2022-08-21T09:56:28;100250.00;;;28.70
24639;BMP180;1641;51.306;12.384;2022-08-21T09:59:15;100257.00;;;28.30
24639;BMP180;1641;51.306;12.384;2022-08-21T10:01:47;100260.00;;;27.70
24639;BMP180;1641;51.306;12.384;2022-08-21T10:04:13;100231.00;;;26.80
24639;BMP180;1641;51.306;12.384;2022-08-21T10:06:39;100252.00;;;27.40
24639;BMP180;1641;51.306;12.384;2022-08-21T10:09:13;100249.00;;;27.90
24639;BMP180;1641;51.306;12.384;2022-08-21T10:11:40;100251.00;;;27.50
24639;BMP180;1641;51.306;12.384;2022-08-21T10:17:13;100249.00;;;26.00
24639;BMP180;1641;51.306;12.384;2022-08-21T10:22:38;100248.00;;;25.60
24639;BMP180;1641;51.306;12.384;2022-08-21T10:25:24;100243.00;;;26.40
24639;BMP180;1641;51.306;12.384;2022-08-21T10:28:12;100252.00;;;26.50
24639;BMP180;1641;51.306;12.384;2022-08-21T10:30:59;100250.00;;;26.50
24639;BMP180;1641;51.306;12.384;2022-08-21T10:36:17;100251.00;;;26.00
24639;BMP180;1641;51.306;12.384;2022-08-21T10:39:12;100245.00;;;26.00
24639;BMP180;1641;51.306;12.384;2022-08-21T10:41:51;100247.00;;;26.40
24639;BMP180;1641;51.306;12.384;2022-08-21T10:44:32;100244.00;;;26.80
24639;BMP180;1641;51.306;12.384;2022-08-21T10:47:17;100247.00;;;25.70
24639;BMP180;1641;51.306;12.384;2022-08-21T10:50:12;100242.00;;;25.70
24639;BMP180;1641;51.306;12.384;2022-08-21T10:53:05;100232.00;;;25.60
24639;BMP180;1641;51.306;12.384;2022-08-21T10:55:48;100226.00;;;26.00
24639;BMP180;1641;51.306;12.384;2022-08-21T10:58:31;100236.00;;;25.50
24639;BMP180;1641;51.306;12.384;2022-08-21T11:01:05;100233.00;;;25.60
24639;BMP180;1641;51.306;12.384;2022-08-21T11:03:41;100232.00;;;25.80
24639;BMP180;1641;51.306;12.384;2022-08-21T11:06:13;100231.00;;;25.40
24639;BMP180;1641;51.306;12.384;2022-08-21T11:08:43;100234.00;;;25.90
24639;BMP180;1641;51.306;12.384;2022-08-21T11:11:25;100225.00;;;25.80
24639;BMP180;1641;51.306;12.384;2022-08-21T11:13:55;100228.00;;;25.80
24639;BMP180;1641;51.306;12.384;2022-08-21T11:16:38;100228.00;;;25.40
24639;BMP180;1641;51.306;12.384;2022-08-21T11:19:12;100227.00;;;25.50
24639;BMP180;1641;51.306;12.384;2022-08-21T11:22:00;100231.00;;;25.90
24639;BMP180;1641;51.306;12.384;2022-08-21T11:24:39;100227.00;;;26.40
24639;BMP180;1641;51.306;12.384;2022-08-21T11:29:54;100226.00;;;25.50
24639;BMP180;1641;51.306;12.384;2022-08-21T11:35:21;100218.00;;;25.80
24639;BMP180;1641;51.306;12.384;2022-08-21T11:40:44;100215.00;;;25.20
24639;BMP180;1641;51.306;12.384;2022-08-21T11:45:54;100203.00;;;25.70
24639;BMP180;1641;51.306;12.384;2022-08-21T11:48:29;100206.00;;;26.10
24639;BMP180;1641;51.306;12.384;2022-08-21T11:50:57;100202.00;;;25.30
24639;BMP180;1641;51.306;12.384;2022-08-21T11:53:37;100201.00;;;25.30
24639;BMP180;1641;51.306;12.384;2022-08-21T11:56:34;100192.00;;;25.30
24639;BMP180;1641;51.306;12.384;2022-08-21T11:59:05;100197.00;;;25.20
24639;BMP180;1641;51.306;12.384;2022-08-21T12:01:41;100196.00;;;25.70
24639;BMP180;1641;51.306;12.384;2022-08-21T12:04:41;100203.00;;;25.90
24639;BMP180;1641;51.306;12.384;2022-08-21T12:07:16;100187.00;;;26.60
24639;BMP180;1641;51.306;12.384;2022-08-21T12:09:53;100201.00;;;25.80
24639;BMP180;1641;51.306;12.384;2022-08-21T12:12:31;100196.00;;;25.70
24639;BMP180;1641;51.306;12.384;2022-08-21T12:18:05;100195.00;;;25.70
24639;BMP180;1641;51.306;12.384;2022-08-21T12:28:11;100164.00;;;26.80
24639;BMP180;1641;51.306;12.384;2022-08-21T12:30:41;100193.00;;;27.20
24639;BMP180;1641;51.306;12.384;2022-08-21T12:33:31;100189.00;;;26.30
24639;BMP180;1641;51.306;12.384;2022-08-21T12:36:16;100185.00;;;26.50
24639;BMP180;1641;51.306;12.384;2022-08-21T12:38:54;100192.00;;;26.30
24639;BMP180;1641;51.306;12.384;2022-08-21T12:41:33;100185.00;;;27.10
24639;BMP180;1641;51.306;12.384;2022-08-21T12:44:08;100183.00;;;27.70
24639;BMP180;1641;51.306;12.384;2022-08-21T12:46:44;100190.00;;;27.10
24639;BMP180;1641;51.306;12.384;2022-08-21T12:49:18;100182.00;;;27.00
24639;BMP180;1641;51.306;12.384;2022-08-21T12:52:20;100184.00;;;27.00
24639;BMP180;1641;51.306;12.384;2022-08-21T12:54:46;100180.00;;;26.60
24639;BMP180;1641;51.306;12.384;2022-08-21T12:57:27;100185.00;;;26.70
24639;BMP180;1641;51.306;12.384;2022-08-21T12:59:54;100178.00;;;26.80
24639;BMP180;1641;51.306;12.384;2022-08-21T13:02:23;100182.00;;;26.70
24639;BMP180;1641;51.306;12.384;2022-08-21T13:05:06;100184.00;;;26.70
24639;BMP180;1641;51.306;12.384;2022-08-21T13:07:35;100185.00;;;26.60
24639;BMP180;1641;51.306;12.384;2022-08-21T13:10:16;100178.00;;;27.40
24639;BMP180;1641;51.306;12.384;2022-08-21T13:12:43;100175.00;;;26.90
24639;BMP180;1641;51.306;12.384;2022-08-21T13:15:13;100173.00;;;26.70
24639;BMP180;1641;51.306;12.384;2022-08-21T13:17:42;100149.00;;;26.60
24639;BMP180;1641;51.306;12.384;2022-08-21T13:20:22;100170.00;;;26.50
24639;BMP180;1641;51.306;12.384;2022-08-21T13:22:48;100156.00;;;26.30
24639;BMP180;1641;51.306;12.384;2022-08-21T13:25:16;100165.00;;;26.30
24639;BMP180;1641;51.306;12.384;2022-08-21T13:27:44;100167.00;;;25.90
24639;BMP180;1641;51.306;12.384;2022-08-21T13:30:20;100162.00;;;25.80
24639;BMP180;1641;51.306;12.384;2022-08-21T13:32:50;100173.00;;;25.80
24639;BMP180;1641;51.306;12.384;2022-08-21T13:35:17;100177.00;;;26.20
24639;BMP180;1641;51.306;12.384;2022-08-21T13:37:44;100172.00;;;26.20
24639;BMP180;1641;51.306;12.384;2022-08-21T13:40:14;100169.00;;;26.30
24639;BMP180;1641;51.306;12.384;2022-08-21T13:42:44;100167.00;;;26.30
24639;BMP180;1641;51.306;12.384;2022-08-21T13:45:30;100161.00;;;26.80
24639;BMP180;1641;51.306;12.384;2022-08-21T13:47:56;100162.00;;;26.60
24639;BMP180;1641;51.306;12.384;2022-08-21T13:50:24;100152.00;;;26.40
24639;BMP180;1641;51.306;12.384;2022-08-21T13:53:03;100153.00;;;26.40
24639;BMP180;1641;51.306;12.384;2022-08-21T13:55:43;100148.00;;;26.10
24639;BMP180;1641;51.306;12.384;2022-08-21T13:58:10;100159.00;;;26.60
24639;BMP180;1641;51.306;12.384;2022-08-21T14:00:49;100157.00;;;27.40
24639;BMP180;1641;51.306;12.384;2022-08-21T14:03:43;100154.00;;;27.20
24639;BMP180;1641;51.306;12.384;2022-08-21T14:06:18;100146.00;;;26.90
24639;BMP180;1641;51.306;12.384;2022-08-21T14:08:50;100160.00;;;27.30
24639;BMP180;1641;51.306;12.384;2022-08-21T14:11:16;100156.00;;;27.60
24639;BMP180;1641;51.306;12.384;2022-08-21T14:13:51;100163.00;;;27.50
24639;BMP180;1641;51.306;12.384;2022-08-21T14:16:24;100161.00;;;27.50
24639;BMP180;1641;51.306;12.384;2022-08-21T14:18:53;100161.00;;;27.70
24639;BMP180;1641;51.306;12.384;2022-08-21T14:21:36;100162.00;;;27.80
24639;BMP180;1641;51.306;12.384;2022-08-21T14:24:08;100160.00;;;27.20
24639;BMP180;1641;51.306;12.384;2022-08-21T14:26:37;100135.00;;;26.80
24639;BMP180;1641;51.306;12.384;2022-08-21T14:29:07;100152.00;;;26.40
24639;BMP180;1641;51.306;12.384;2022-08-21T14:31:36;100152.00;;;26.70
24639;BMP180;1641;51.306;12.384;2022-08-21T14:34:02;100150.00;;;26.50
24639;BMP180;1641;51.306;12.384;2022-08-21T14:36:27;100147.00;;;26.20
24639;BMP180;1641;51.306;12.384;2022-08-21T14:38:53;100153.00;;;26.50
24639;BMP180;1641;51.306;12.384;2022-08-21T14:41:22;100142.00;;;26.20
24639;BMP180;1641;51.306;12.384;2022-08-21T14:43:48;100149.00;;;26.40
24639;BMP180;1641;51.306;12.384;2022-08-21T14:46:21;100138.00;;;26.40
24639;BMP180;1641;51.306;12.384;2022-08-21T14:48:49;100141.00;;;26.50
24639;BMP180;1641;51.306;12.384;2022-08-21T14:51:16;100152.00;;;26.70
24639;BMP180;1641;51.306;12.384;2022-08-21T14:53:45;100143.00;;;26.70
24639;BMP180;1641;51.306;12.384;2022-08-21T14:56:11;100147.00;;;26.70